sensor_id;sensor_type;location;lat;lon;timestamp;P1;durP1;ratioP1;P2;durP2;ratioP2
19193;SDS011;9729;52.296;13.260;2023-05-10T00:00:17;7.80;;;6.53;;
19193;SDS011;9729;52.296;13.260;2023-05-10T00:02:43;8.40;;;6.50;;
19193;SDS011;9729;52.296;13.260;2023-05-10T00:05:10;12.07;;;6.70;;
19193;SDS011;9729;52.296;13.260;2023-05-10T00:07:36;10.97;;;7.10;;
19193;SDS011;9729;52.296;13.260;2023-05-10T00:10:03;12.03;;;6.93;;
19193;SDS011;9729;52.296;13.260;2023-05-10T00:12:30;9.17;;;6.73;;
19193;SDS011;9729;52.296;13.260;2023-05-10T00:14:57;8.87;;;7.23;;
19193;SDS011;9729;52.296;13.260;2023-05-10T00:17:23;10.17;;;6.67;;
19193;SDS011;9729;52.296;13.260;2023-05-10T00:19:50;10.73;;;7.30;;
19193;SDS011;9729;52.296;13.260;2023-05-10T00:22:16;12.47;;;6.37;;
19193;SDS011;9729;52.296;13.260;2023-05-10T00:24:42;13.43;;;7.30;;
19193;SDS011;9729;52.296;13.260;2023-05-10T00:27:09;15.40;;;7.83;;
19193;SDS011;9729;52.296;13.260;2023-05-10T00:29:35;12.47;;;7.27;;
19193;SDS011;9729;52.296;13.260;2023-05-10T00:32:03;12.17;;;7.80;;
19193;SDS011;9729;52.296;13.260;2023-05-10T00:34:29;9.50;;;6.83;;
19193;SDS011;9729;52.296;13.260;2023-05-10T00:36:56;11.17;;;7.93;;
19193;SDS011;9729;52.296;13.260;2023-05-10T00:39:22;10.57;;;6.67;;
19193;SDS011;9729;52.296;13.260;2023-05-10T00:41:49;12.13;;;7.73;;
19193;SDS011;9729;52.296;13.260;2023-05-10T00:44:15;12.87;;;7.10;;
19193;SDS011;9729;52.296;13.260;2023-05-10T00:46:41;10.77;;;6.90;;
19193;SDS011;9729;52.296;13.260;2023-05-10T00:49:09;12.03;;;7.97;;
19193;SDS011;9729;52.296;13.260;2023-05-10T00:51:35;12.57;;;7.37;;
19193;SDS011;9729;52.296;13.260;2023-05-10T00:54:02;13.53;;;7.37;;
19193;SDS011;9729;52.296;13.260;2023-05-10T00:56:29;10.87;;;7.57;;
19193;SDS011;9729;52.296;13.260;2023-05-10T00:58:55;10.50;;;7.07;;
19193;SDS011;9729;52.296;13.260;2023-05-10T01:01:22;10.73;;;7.50;;
19193;SDS011;9729;52.296;13.260;2023-05-10T01:03:48;12.70;;;7.17;;
19193;SDS011;9729;52.296;13.260;2023-05-10T01:06:16;11.57;;;7.23;;
19193;SDS011;9729;52.296;13.260;2023-05-10T01:08:42;10.30;;;7.87;;
19193;SDS011;9729;52.296;13.260;2023-05-10T01:11:08;18.13;;;8.23;;
19193;SDS011;9729;52.296;13.260;2023-05-10T01:13:36;8.67;;;7.00;;
19193;SDS011;9729;52.296;13.260;2023-05-10T01:19:26;16.07;;;8.73;;
19193;SDS011;9729;52.296;13.260;2023-05-10T01:21:58;10.07;;;7.27;;
19193;SDS011;9729;52.296;13.260;2023-05-10T01:24:38;13.67;;;7.50;;
19193;SDS011;9729;52.296;13.260;2023-05-10T01:27:20;9.83;;;7.23;;
19193;SDS011;9729;52.296;13.260;2023-05-10T01:30:18;12.93;;;8.20;;
19193;SDS011;9729;52.296;13.260;2023-05-10T01:32:56;9.10;;;7.77;;
19193;SDS011;9729;52.296;13.260;2023-05-10T01:35:31;8.77;;;7.40;;
19193;SDS011;9729;52.296;13.260;2023-05-10T01:38:04;12.67;;;7.77;;
19193;SDS011;9729;52.296;13.260;2023-05-10T01:40:35;10.47;;;8.00;;
19193;SDS011;9729;52.296;13.260;2023-05-10T01:43:04;13.20;;;7.43;;
19193;SDS011;9729;52.296;13.260;2023-05-10T01:45:34;7.93;;;7.13;;
19193;SDS011;9729;52.296;13.260;2023-05-10T01:48:05;10.97;;;7.60;;
19193;SDS011;9729;52.296;13.260;2023-05-10T01:50:32;9.53;;;7.40;;
19193;SDS011;9729;52.296;13.260;2023-05-10T01:52:59;11.10;;;7.47;;
19193;SDS011;9729;52.296;13.260;2023-05-10T01:55:27;13.97;;;7.23;;
19193;SDS011;9729;52.296;13.260;2023-05-10T01:57:56;11.70;;;7.77;;
19193;SDS011;9729;52.296;13.260;2023-05-10T02:00:27;12.37;;;7.83;;
19193;SDS011;9729;52.296;13.260;2023-05-10T02:02:54;10.80;;;7.07;;
19193;SDS011;9729;52.296;13.260;2023-05-10T02:05:22;10.33;;;8.13;;
19193;SDS011;9729;52.296;13.260;2023-05-10T02:07:49;10.47;;;8.13;;
19193;SDS011;9729;52.296;13.260;2023-05-10T02:10:16;8.77;;;7.13;;
19193;SDS011;9729;52.296;13.260;2023-05-10T02:12:43;13.17;;;7.70;;
19193;SDS011;9729;52.296;13.260;2023-05-10T02:15:11;10.93;;;7.83;;
19193;SDS011;9729;52.296;13.260;2023-05-10T02:17:38;11.67;;;8.13;;
19193;SDS011;9729;52.296;13.260;2023-05-10T02:20:06;12.07;;;8.13;;
19193;SDS011;9729;52.296;13.260;2023-05-10T02:22:35;12.50;;;8.37;;
19193;SDS011;9729;52.296;13.260;2023-05-10T02:25:02;13.90;;;7.80;;
19193;SDS011;9729;52.296;13.260;2023-05-10T02:27:29;15.00;;;8.73;;
19193;SDS011;9729;52.296;13.260;2023-05-10T02:29:56;12.27;;;8.87;;
19193;SDS011;9729;52.296;13.260;2023-05-10T02:32:23;13.03;;;8.43;;
19193;SDS011;9729;52.296;13.260;2023-05-10T02:34:50;15.10;;;7.83;;
19193;SDS011;9729;52.296;13.260;2023-05-10T02:37:18;10.90;;;7.23;;
19193;SDS011;9729;52.296;13.260;2023-05-10T02:39:46;10.87;;;7.43;;
19193;SDS011;9729;52.296;13.260;2023-05-10T02:42:13;10.00;;;7.93;;
19193;SDS011;9729;52.296;13.260;2023-05-10T02:44:43;11.70;;;8.40;;
19193;SDS011;9729;52.296;13.260;2023-05-10T02:47:10;15.20;;;7.73;;
19193;SDS011;9729;52.296;13.260;2023-05-10T02:49:36;11.63;;;8.30;;
19193;SDS011;9729;52.296;13.260;2023-05-10T02:52:04;10.43;;;8.37;;
19193;SDS011;9729;52.296;13.260;2023-05-10T02:54:32;13.57;;;8.27;;
19193;SDS011;9729;52.296;13.260;2023-05-10T02:57:04;11.37;;;7.80;;
19193;SDS011;9729;52.296;13.260;2023-05-10T02:59:32;12.07;;;8.23;;
19193;SDS011;9729;52.296;13.260;2023-05-10T03:01:58;14.07;;;8.57;;
19193;SDS011;9729;52.296;13.260;2023-05-10T03:04:25;11.07;;;8.87;;
19193;SDS011;9729;52.296;13.260;2023-05-10T03:06:51;14.37;;;8.13;;
19193;SDS011;9729;52.296;13.260;2023-05-10T03:09:18;10.00;;;7.80;;
19193;SDS011;9729;52.296;13.260;2023-05-10T03:11:47;18.87;;;8.83;;
19193;SDS011;9729;52.296;13.260;2023-05-10T03:14:25;9.77;;;7.40;;
19193;SDS011;9729;52.296;13.260;2023-05-10T03:16:58;11.73;;;8.50;;
19193;SDS011;9729;52.296;13.260;2023-05-10T03:19:27;9.43;;;7.03;;
19193;SDS011;9729;52.296;13.260;2023-05-10T03:21:57;11.60;;;8.83;;
19193;SDS011;9729;52.296;13.260;2023-05-10T03:24:26;11.40;;;8.40;;
19193;SDS011;9729;52.296;13.260;2023-05-10T03:26:53;14.00;;;8.57;;
19193;SDS011;9729;52.296;13.260;2023-05-10T03:29:22;13.17;;;8.67;;
19193;SDS011;9729;52.296;13.260;2023-05-10T03:31:50;11.57;;;8.10;;
19193;SDS011;9729;52.296;13.260;2023-05-10T03:34:16;10.57;;;7.93;;
19193;SDS011;9729;52.296;13.260;2023-05-10T03:36:43;10.10;;;8.10;;
19193;SDS011;9729;52.296;13.260;2023-05-10T03:39:09;9.80;;;8.00;;
19193;SDS011;9729;52.296;13.260;2023-05-10T03:41:36;11.40;;;8.10;;
19193;SDS011;9729;52.296;13.260;2023-05-10T03:44:02;11.40;;;7.80;;
19193;SDS011;9729;52.296;13.260;2023-05-10T03:46:30;10.50;;;7.70;;
19193;SDS011;9729;52.296;13.260;2023-05-10T03:48:56;9.20;;;7.93;;
19193;SDS011;9729;52.296;13.260;2023-05-10T03:51:22;11.60;;;8.27;;
19193;SDS011;9729;52.296;13.260;2023-05-10T03:53:52;10.57;;;8.23;;
19193;SDS011;9729;52.296;13.260;2023-05-10T03:56:19;10.80;;;7.53;;
19193;SDS011;9729;52.296;13.260;2023-05-10T03:58:46;13.67;;;8.23;;
19193;SDS011;9729;52.296;13.260;2023-05-10T04:01:12;16.23;;;7.97;;
19193;SDS011;9729;52.296;13.260;2023-05-10T04:03:40;9.97;;;8.13;;
19193;SDS011;9729;52.296;13.260;2023-05-10T04:06:06;12.60;;;7.43;;
19193;SDS011;9729;52.296;13.260;2023-05-10T04:08:34;11.93;;;8.17;;
19193;SDS011;9729;52.296;13.260;2023-05-10T04:11:06;12.53;;;7.90;;
19193;SDS011;9729;52.296;13.260;2023-05-10T04:13:33;10.07;;;7.73;;
19193;SDS011;9729;52.296;13.260;2023-05-10T04:15:59;12.17;;;7.60;;
19193;SDS011;9729;52.296;13.260;2023-05-10T04:18:26;12.07;;;7.70;;
19193;SDS011;9729;52.296;13.260;2023-05-10T04:20:53;8.20;;;7.13;;
19193;SDS011;9729;52.296;13.260;2023-05-10T04:23:20;11.40;;;8.27;;
19193;SDS011;9729;52.296;13.260;2023-05-10T04:25:46;12.33;;;7.93;;
19193;SDS011;9729;52.296;13.260;2023-05-10T04:28:12;8.67;;;7.30;;
19193;SDS011;9729;52.296;13.260;2023-05-10T04:30:39;10.37;;;7.50;;
19193;SDS011;9729;52.296;13.260;2023-05-10T04:33:05;8.40;;;7.13;;
19193;SDS011;9729;52.296;13.260;2023-05-10T04:35:31;11.90;;;7.17;;
19193;SDS011;9729;52.296;13.260;2023-05-10T04:38:00;13.73;;;7.53;;
19193;SDS011;9729;52.296;13.260;2023-05-10T04:40:26;10.03;;;7.47;;
19193;SDS011;9729;52.296;13.260;2023-05-10T04:42:52;11.73;;;6.90;;
19193;SDS011;9729;52.296;13.260;2023-05-10T04:45:19;12.17;;;7.07;;
19193;SDS011;9729;52.296;13.260;2023-05-10T04:47:45;16.20;;;8.53;;
19193;SDS011;9729;52.296;13.260;2023-05-10T04:50:12;10.27;;;6.80;;
19193;SDS011;9729;52.296;13.260;2023-05-10T04:52:38;14.57;;;7.00;;
19193;SDS011;9729;52.296;13.260;2023-05-10T04:55:06;10.83;;;6.50;;
19193;SDS011;9729;52.296;13.260;2023-05-10T04:57:34;9.37;;;6.37;;
19193;SDS011;9729;52.296;13.260;2023-05-10T05:00:00;13.07;;;6.43;;
19193;SDS011;9729;52.296;13.260;2023-05-10T05:02:27;7.97;;;5.97;;
19193;SDS011;9729;52.296;13.260;2023-05-10T05:04:55;15.60;;;6.83;;
19193;SDS011;9729;52.296;13.260;2023-05-10T05:07:22;7.27;;;6.00;;
19193;SDS011;9729;52.296;13.260;2023-05-10T05:09:48;10.93;;;5.90;;
19193;SDS011;9729;52.296;13.260;2023-05-10T05:12:16;9.07;;;5.93;;
19193;SDS011;9729;52.296;13.260;2023-05-10T05:14:43;10.07;;;5.53;;
19193;SDS011;9729;52.296;13.260;2023-05-10T05:17:09;10.43;;;5.73;;
19193;SDS011;9729;52.296;13.260;2023-05-10T05:19:35;6.80;;;5.40;;
19193;SDS011;9729;52.296;13.260;2023-05-10T05:22:02;11.73;;;5.80;;
19193;SDS011;9729;52.296;13.260;2023-05-10T05:24:28;7.30;;;5.30;;
19193;SDS011;9729;52.296;13.260;2023-05-10T05:26:54;6.17;;;5.00;;
19193;SDS011;9729;52.296;13.260;2023-05-10T05:29:22;12.03;;;5.27;;
19193;SDS011;9729;52.296;13.260;2023-05-10T05:31:49;10.30;;;5.67;;
19193;SDS011;9729;52.296;13.260;2023-05-10T05:34:15;6.10;;;4.50;;
19193;SDS011;9729;52.296;13.260;2023-05-10T05:36:41;5.63;;;4.80;;
19193;SDS011;9729;52.296;13.260;2023-05-10T05:39:08;8.90;;;5.33;;
19193;SDS011;9729;52.296;13.260;2023-05-10T05:41:34;12.30;;;5.30;;
19193;SDS011;9729;52.296;13.260;2023-05-10T05:44:00;7.33;;;5.23;;
19193;SDS011;9729;52.296;13.260;2023-05-10T05:46:28;12.27;;;5.20;;
19193;SDS011;9729;52.296;13.260;2023-05-10T05:48:54;7.23;;;5.17;;
19193;SDS011;9729;52.296;13.260;2023-05-10T05:51:21;8.50;;;5.67;;
19193;SDS011;9729;52.296;13.260;2023-05-10T05:53:47;12.73;;;5.50;;
19193;SDS011;9729;52.296;13.260;2023-05-10T05:56:15;7.27;;;5.33;;
19193;SDS011;9729;52.296;13.260;2023-05-10T05:58:42;5.40;;;4.57;;
19193;SDS011;9729;52.296;13.260;2023-05-10T06:01:09;7.07;;;4.87;;
19193;SDS011;9729;52.296;13.260;2023-05-10T06:03:37;6.17;;;4.87;;
19193;SDS011;9729;52.296;13.260;2023-05-10T06:06:03;9.67;;;4.90;;
19193;SDS011;9729;52.296;13.260;2023-05-10T06:08:30;10.13;;;4.50;;
19193;SDS011;9729;52.296;13.260;2023-05-10T06:10:56;7.17;;;5.00;;
19193;SDS011;9729;52.296;13.260;2023-05-10T06:13:22;6.00;;;4.53;;
19193;SDS011;9729;52.296;13.260;2023-05-10T06:15:49;9.60;;;4.90;;
19193;SDS011;9729;52.296;13.260;2023-05-10T06:18:15;10.70;;;5.00;;
19193;SDS011;9729;52.296;13.260;2023-05-10T06:20:43;9.93;;;5.13;;
19193;SDS011;9729;52.296;13.260;2023-05-10T06:23:09;7.57;;;4.77;;
19193;SDS011;9729;52.296;13.260;2023-05-10T06:25:36;5.47;;;4.77;;
19193;SDS011;9729;52.296;13.260;2023-05-10T06:28:02;6.00;;;4.80;;
19193;SDS011;9729;52.296;13.260;2023-05-10T06:30:28;7.33;;;4.80;;
19193;SDS011;9729;52.296;13.260;2023-05-10T06:32:55;10.03;;;5.23;;
19193;SDS011;9729;52.296;13.260;2023-05-10T06:35:21;5.23;;;4.17;;
19193;SDS011;9729;52.296;13.260;2023-05-10T06:37:49;6.93;;;4.33;;
19193;SDS011;9729;52.296;13.260;2023-05-10T06:40:16;10.53;;;4.90;;
19193;SDS011;9729;52.296;13.260;2023-05-10T06:42:43;8.73;;;4.93;;
19193;SDS011;9729;52.296;13.260;2023-05-10T06:45:11;6.53;;;4.83;;
19193;SDS011;9729;52.296;13.260;2023-05-10T06:47:38;5.93;;;4.67;;
19193;SDS011;9729;52.296;13.260;2023-05-10T06:50:04;7.47;;;4.43;;
19193;SDS011;9729;52.296;13.260;2023-05-10T06:52:31;6.80;;;4.30;;
19193;SDS011;9729;52.296;13.260;2023-05-10T06:54:59;8.87;;;4.63;;
19193;SDS011;9729;52.296;13.260;2023-05-10T06:57:26;7.00;;;4.10;;
19193;SDS011;9729;52.296;13.260;2023-05-10T06:59:53;5.37;;;4.40;;
19193;SDS011;9729;52.296;13.260;2023-05-10T07:02:21;9.60;;;4.60;;
19193;SDS011;9729;52.296;13.260;2023-05-10T07:04:47;8.50;;;4.27;;
19193;SDS011;9729;52.296;13.260;2023-05-10T07:07:14;7.63;;;4.33;;
19193;SDS011;9729;52.296;13.260;2023-05-10T07:09:40;5.90;;;4.30;;
19193;SDS011;9729;52.296;13.260;2023-05-10T07:12:08;6.07;;;4.33;;
19193;SDS011;9729;52.296;13.260;2023-05-10T07:14:35;8.70;;;4.50;;
19193;SDS011;9729;52.296;13.260;2023-05-10T07:17:01;7.10;;;4.63;;
19193;SDS011;9729;52.296;13.260;2023-05-10T07:19:27;5.47;;;4.33;;
19193;SDS011;9729;52.296;13.260;2023-05-10T07:21:54;6.23;;;4.77;;
19193;SDS011;9729;52.296;13.260;2023-05-10T07:24:21;9.10;;;4.60;;
19193;SDS011;9729;52.296;13.260;2023-05-10T07:26:48;18.23;;;4.80;;
19193;SDS011;9729;52.296;13.260;2023-05-10T07:29:15;5.87;;;4.37;;
19193;SDS011;9729;52.296;13.260;2023-05-10T07:31:42;6.07;;;5.17;;
19193;SDS011;9729;52.296;13.260;2023-05-10T07:34:08;10.13;;;5.37;;
19193;SDS011;9729;52.296;13.260;2023-05-10T07:36:35;7.63;;;5.10;;
19193;SDS011;9729;52.296;13.260;2023-05-10T07:39:01;5.00;;;4.50;;
19193;SDS011;9729;52.296;13.260;2023-05-10T07:41:28;6.97;;;4.50;;
19193;SDS011;9729;52.296;13.260;2023-05-10T07:43:54;6.63;;;5.13;;
19193;SDS011;9729;52.296;13.260;2023-05-10T07:46:22;5.47;;;4.90;;
19193;SDS011;9729;52.296;13.260;2023-05-10T07:48:48;9.50;;;5.03;;
19193;SDS011;9729;52.296;13.260;2023-05-10T07:51:15;7.50;;;4.60;;
19193;SDS011;9729;52.296;13.260;2023-05-10T07:53:41;10.43;;;4.53;;
19193;SDS011;9729;52.296;13.260;2023-05-10T07:56:21;10.17;;;4.40;;
19193;SDS011;9729;52.296;13.260;2023-05-10T07:58:49;6.90;;;4.43;;
19193;SDS011;9729;52.296;13.260;2023-05-10T08:01:16;9.50;;;4.10;;
19193;SDS011;9729;52.296;13.260;2023-05-10T08:03:44;9.10;;;4.40;;
19193;SDS011;9729;52.296;13.260;2023-05-10T08:06:11;7.07;;;4.17;;
19193;SDS011;9729;52.296;13.260;2023-05-10T08:08:37;9.23;;;4.23;;
19193;SDS011;9729;52.296;13.260;2023-05-10T08:11:04;8.07;;;4.97;;
19193;SDS011;9729;52.296;13.260;2023-05-10T08:13:30;10.67;;;4.63;;
19193;SDS011;9729;52.296;13.260;2023-05-10T08:15:57;7.67;;;4.30;;
19193;SDS011;9729;52.296;13.260;2023-05-10T08:18:23;6.10;;;5.00;;
19193;SDS011;9729;52.296;13.260;2023-05-10T08:20:52;7.17;;;3.93;;
19193;SDS011;9729;52.296;13.260;2023-05-10T08:23:18;11.40;;;4.30;;
19193;SDS011;9729;52.296;13.260;2023-05-10T08:25:44;8.73;;;3.97;;
19193;SDS011;9729;52.296;13.260;2023-05-10T08:28:11;5.97;;;4.00;;
19193;SDS011;9729;52.296;13.260;2023-05-10T08:30:37;4.70;;;3.93;;
19193;SDS011;9729;52.296;13.260;2023-05-10T08:33:03;10.13;;;3.63;;
19193;SDS011;9729;52.296;13.260;2023-05-10T08:35:30;9.27;;;4.03;;
19193;SDS011;9729;52.296;13.260;2023-05-10T08:37:57;9.30;;;4.97;;
19193;SDS011;9729;52.296;13.260;2023-05-10T08:40:24;7.80;;;4.70;;
19193;SDS011;9729;52.296;13.260;2023-05-10T08:42:54;7.63;;;4.37;;
19193;SDS011;9729;52.296;13.260;2023-05-10T08:45:22;4.67;;;3.80;;
19193;SDS011;9729;52.296;13.260;2023-05-10T08:47:49;4.87;;;3.93;;
19193;SDS011;9729;52.296;13.260;2023-05-10T08:50:16;8.00;;;4.43;;
19193;SDS011;9729;52.296;13.260;2023-05-10T08:52:46;4.97;;;4.23;;
19193;SDS011;9729;52.296;13.260;2023-05-10T08:55:15;12.60;;;4.68;;
19193;SDS011;9729;52.296;13.260;2023-05-10T08:57:42;9.93;;;4.50;;
19193;SDS011;9729;52.296;13.260;2023-05-10T09:00:08;7.03;;;4.28;;
19193;SDS011;9729;52.296;13.260;2023-05-10T09:02:36;6.45;;;4.40;;
19193;SDS011;9729;52.296;13.260;2023-05-10T09:05:03;6.28;;;4.30;;
19193;SDS011;9729;52.296;13.260;2023-05-10T09:07:30;6.60;;;4.13;;
19193;SDS011;9729;52.296;13.260;2023-05-10T09:09:56;4.45;;;4.00;;
19193;SDS011;9729;52.296;13.260;2023-05-10T09:12:24;4.80;;;3.67;;
19193;SDS011;9729;52.296;13.260;2023-05-10T09:14:51;8.07;;;3.83;;
19193;SDS011;9729;52.296;13.260;2023-05-10T09:17:18;4.70;;;3.60;;
19193;SDS011;9729;52.296;13.260;2023-05-10T09:19:44;5.87;;;3.80;;
19193;SDS011;9729;52.296;13.260;2023-05-10T09:22:11;5.20;;;4.00;;
19193;SDS011;9729;52.296;13.260;2023-05-10T09:24:37;3.90;;;3.50;;
19193;SDS011;9729;52.296;13.260;2023-05-10T09:27:07;5.97;;;3.40;;
19193;SDS011;9729;52.296;13.260;2023-05-10T09:29:42;4.17;;;3.77;;
19193;SDS011;9729;52.296;13.260;2023-05-10T09:32:09;7.57;;;4.77;;
19193;SDS011;9729;52.296;13.260;2023-05-10T09:34:35;5.37;;;3.83;;
19193;SDS011;9729;52.296;13.260;2023-05-10T09:37:04;5.10;;;4.20;;
19193;SDS011;9729;52.296;13.260;2023-05-10T09:39:31;3.40;;;3.10;;
19193;SDS011;9729;52.296;13.260;2023-05-10T09:41:59;5.70;;;3.63;;
19193;SDS011;9729;52.296;13.260;2023-05-10T09:44:28;4.27;;;3.70;;
19193;SDS011;9729;52.296;13.260;2023-05-10T09:46:56;8.10;;;3.73;;
19193;SDS011;9729;52.296;13.260;2023-05-10T09:49:23;4.47;;;3.80;;
19193;SDS011;9729;52.296;13.260;2023-05-10T09:54:31;3.97;;;3.47;;
19193;SDS011;9729;52.296;13.260;2023-05-10T09:56:58;4.87;;;3.57;;
19193;SDS011;9729;52.296;13.260;2023-05-10T09:59:26;6.87;;;3.50;;
19193;SDS011;9729;52.296;13.260;2023-05-10T10:01:55;6.10;;;3.70;;
19193;SDS011;9729;52.296;13.260;2023-05-10T10:04:23;8.60;;;4.63;;
19193;SDS011;9729;52.296;13.260;2023-05-10T10:06:58;5.03;;;3.87;;
19193;SDS011;9729;52.296;13.260;2023-05-10T10:09:25;4.85;;;4.25;;
19193;SDS011;9729;52.296;13.260;2023-05-10T10:11:52;3.83;;;3.53;;
19193;SDS011;9729;52.296;13.260;2023-05-10T10:14:18;7.50;;;4.53;;
19193;SDS011;9729;52.296;13.260;2023-05-10T10:16:44;4.67;;;3.83;;
19193;SDS011;9729;52.296;13.260;2023-05-10T10:19:13;6.23;;;3.83;;
19193;SDS011;9729;52.296;13.260;2023-05-10T10:21:40;5.97;;;3.57;;
19193;SDS011;9729;52.296;13.260;2023-05-10T10:24:06;4.50;;;3.40;;
19193;SDS011;9729;52.296;13.260;2023-05-10T10:26:33;6.37;;;3.43;;
19193;SDS011;9729;52.296;13.260;2023-05-10T10:29:04;5.03;;;3.43;;
19193;SDS011;9729;52.296;13.260;2023-05-10T10:31:39;6.20;;;3.90;;
19193;SDS011;9729;52.296;13.260;2023-05-10T10:34:08;6.10;;;3.47;;
19193;SDS011;9729;52.296;13.260;2023-05-10T10:36:43;3.90;;;3.20;;
19193;SDS011;9729;52.296;13.260;2023-05-10T10:39:12;4.10;;;3.70;;
19193;SDS011;9729;52.296;13.260;2023-05-10T10:41:39;4.63;;;3.13;;
19193;SDS011;9729;52.296;13.260;2023-05-10T10:44:22;4.53;;;3.50;;
19193;SDS011;9729;52.296;13.260;2023-05-10T10:47:00;3.83;;;3.50;;
19193;SDS011;9729;52.296;13.260;2023-05-10T10:49:27;4.10;;;3.23;;
19193;SDS011;9729;52.296;13.260;2023-05-10T10:54:41;10.23;;;3.47;;
19193;SDS011;9729;52.296;13.260;2023-05-10T10:57:10;6.80;;;3.17;;
19193;SDS011;9729;52.296;13.260;2023-05-10T10:59:41;6.57;;;3.17;;
19193;SDS011;9729;52.296;13.260;2023-05-10T11:02:08;3.83;;;3.40;;
19193;SDS011;9729;52.296;13.260;2023-05-10T11:04:41;4.47;;;3.13;;
19193;SDS011;9729;52.296;13.260;2023-05-10T11:07:19;3.40;;;3.10;;
19193;SDS011;9729;52.296;13.260;2023-05-10T11:09:45;5.00;;;3.63;;
19193;SDS011;9729;52.296;13.260;2023-05-10T11:12:13;4.23;;;3.47;;
19193;SDS011;9729;52.296;13.260;2023-05-10T11:14:39;4.33;;;3.77;;
19193;SDS011;9729;52.296;13.260;2023-05-10T11:20:06;5.13;;;3.00;;
19193;SDS011;9729;52.296;13.260;2023-05-10T11:22:46;11.10;;;3.20;;
19193;SDS011;9729;52.296;13.260;2023-05-10T11:25:15;4.77;;;3.23;;
19193;SDS011;9729;52.296;13.260;2023-05-10T11:27:42;6.47;;;3.60;;
19193;SDS011;9729;52.296;13.260;2023-05-10T11:30:09;4.03;;;3.63;;
19193;SDS011;9729;52.296;13.260;2023-05-10T11:32:36;5.10;;;2.87;;
19193;SDS011;9729;52.296;13.260;2023-05-10T11:35:06;6.03;;;3.50;;
19193;SDS011;9729;52.296;13.260;2023-05-10T11:37:33;4.37;;;2.83;;
19193;SDS011;9729;52.296;13.260;2023-05-10T11:40:01;6.87;;;3.77;;
19193;SDS011;9729;52.296;13.260;2023-05-10T11:42:28;10.23;;;3.37;;
19193;SDS011;9729;52.296;13.260;2023-05-10T11:44:54;6.57;;;3.63;;
19193;SDS011;9729;52.296;13.260;2023-05-10T11:47:22;3.60;;;3.30;;
19193;SDS011;9729;52.296;13.260;2023-05-10T11:49:55;8.93;;;3.50;;
19193;SDS011;9729;52.296;13.260;2023-05-10T11:52:21;5.53;;;3.53;;
19193;SDS011;9729;52.296;13.260;2023-05-10T11:54:50;4.90;;;3.63;;
19193;SDS011;9729;52.296;13.260;2023-05-10T11:57:19;5.60;;;3.43;;
19193;SDS011;9729;52.296;13.260;2023-05-10T11:59:46;4.20;;;3.63;;
19193;SDS011;9729;52.296;13.260;2023-05-10T12:02:12;10.43;;;3.50;;
19193;SDS011;9729;52.296;13.260;2023-05-10T12:04:39;4.97;;;3.73;;
19193;SDS011;9729;52.296;13.260;2023-05-10T12:07:05;4.20;;;3.20;;
19193;SDS011;9729;52.296;13.260;2023-05-10T12:09:32;3.40;;;2.93;;
19193;SDS011;9729;52.296;13.260;2023-05-10T12:11:58;5.57;;;3.60;;
19193;SDS011;9729;52.296;13.260;2023-05-10T12:14:27;8.57;;;3.10;;
19193;SDS011;9729;52.296;13.260;2023-05-10T12:16:58;3.90;;;3.37;;
19193;SDS011;9729;52.296;13.260;2023-05-10T12:19:24;9.40;;;3.57;;
19193;SDS011;9729;52.296;13.260;2023-05-10T12:21:50;4.03;;;3.17;;
19193;SDS011;9729;52.296;13.260;2023-05-10T12:24:17;4.23;;;3.50;;
19193;SDS011;9729;52.296;13.260;2023-05-10T12:26:45;4.17;;;3.57;;
19193;SDS011;9729;52.296;13.260;2023-05-10T12:29:11;3.07;;;2.80;;
19193;SDS011;9729;52.296;13.260;2023-05-10T12:31:51;5.67;;;3.70;;
19193;SDS011;9729;52.296;13.260;2023-05-10T12:34:24;4.50;;;3.40;;
19193;SDS011;9729;52.296;13.260;2023-05-10T12:36:51;4.47;;;3.40;;
19193;SDS011;9729;52.296;13.260;2023-05-10T12:39:18;11.23;;;3.40;;
19193;SDS011;9729;52.296;13.260;2023-05-10T12:41:44;7.67;;;3.30;;
19193;SDS011;9729;52.296;13.260;2023-05-10T12:44:11;5.20;;;3.53;;
19193;SDS011;9729;52.296;13.260;2023-05-10T12:46:37;3.70;;;3.30;;
19193;SDS011;9729;52.296;13.260;2023-05-10T12:49:05;5.90;;;3.30;;
19193;SDS011;9729;52.296;13.260;2023-05-10T12:51:31;6.30;;;3.77;;
19193;SDS011;9729;52.296;13.260;2023-05-10T12:53:57;6.60;;;3.60;;
19193;SDS011;9729;52.296;13.260;2023-05-10T12:56:24;6.87;;;3.57;;
19193;SDS011;9729;52.296;13.260;2023-05-10T12:58:50;7.50;;;3.60;;
19193;SDS011;9729;52.296;13.260;2023-05-10T13:01:17;3.70;;;3.30;;
19193;SDS011;9729;52.296;13.260;2023-05-10T13:03:43;3.40;;;3.10;;
19193;SDS011;9729;52.296;13.260;2023-05-10T13:06:11;4.20;;;3.17;;
19193;SDS011;9729;52.296;13.260;2023-05-10T13:08:38;10.93;;;3.37;;
19193;SDS011;9729;52.296;13.260;2023-05-10T13:11:05;11.40;;;3.20;;
19193;SDS011;9729;52.296;13.260;2023-05-10T13:13:31;7.53;;;2.93;;
19193;SDS011;9729;52.296;13.260;2023-05-10T13:15:57;7.43;;;3.73;;
19193;SDS011;9729;52.296;13.260;2023-05-10T13:18:24;5.73;;;3.30;;
19193;SDS011;9729;52.296;13.260;2023-05-10T13:20:51;7.73;;;3.80;;
19193;SDS011;9729;52.296;13.260;2023-05-10T13:23:18;4.50;;;3.47;;
19193;SDS011;9729;52.296;13.260;2023-05-10T13:25:45;5.13;;;3.40;;
19193;SDS011;9729;52.296;13.260;2023-05-10T13:28:11;9.60;;;4.13;;
19193;SDS011;9729;52.296;13.260;2023-05-10T13:30:37;7.75;;;3.40;;
19193;SDS011;9729;52.296;13.260;2023-05-10T13:33:04;10.05;;;3.80;;
19193;SDS011;9729;52.296;13.260;2023-05-10T13:35:30;8.25;;;3.70;;
19193;SDS011;9729;52.296;13.260;2023-05-10T13:37:56;5.17;;;3.40;;
19193;SDS011;9729;52.296;13.260;2023-05-10T13:40:24;3.38;;;3.08;;
19193;SDS011;9729;52.296;13.260;2023-05-10T13:42:50;4.43;;;3.20;;
19193;SDS011;9729;52.296;13.260;2023-05-10T13:45:17;3.70;;;3.40;;
19193;SDS011;9729;52.296;13.260;2023-05-10T13:47:44;5.22;;;3.35;;
19193;SDS011;9729;52.296;13.260;2023-05-10T13:50:10;7.65;;;3.42;;
19193;SDS011;9729;52.296;13.260;2023-05-10T13:52:36;4.07;;;3.47;;
19193;SDS011;9729;52.296;13.260;2023-05-10T13:55:03;4.10;;;3.27;;
19193;SDS011;9729;52.296;13.260;2023-05-10T13:57:31;5.73;;;2.97;;
19193;SDS011;9729;52.296;13.260;2023-05-10T13:59:59;5.28;;;3.88;;
19193;SDS011;9729;52.296;13.260;2023-05-10T14:02:25;5.47;;;3.60;;
19193;SDS011;9729;52.296;13.260;2023-05-10T14:04:52;5.20;;;3.40;;
19193;SDS011;9729;52.296;13.260;2023-05-10T14:07:18;3.83;;;3.47;;
19193;SDS011;9729;52.296;13.260;2023-05-10T14:09:45;9.53;;;4.50;;
19193;SDS011;9729;52.296;13.260;2023-05-10T14:12:11;6.77;;;3.90;;
19193;SDS011;9729;52.296;13.260;2023-05-10T14:14:40;5.03;;;4.00;;
19193;SDS011;9729;52.296;13.260;2023-05-10T14:17:07;5.57;;;3.90;;
19193;SDS011;9729;52.296;13.260;2023-05-10T14:19:33;6.03;;;3.67;;
19193;SDS011;9729;52.296;13.260;2023-05-10T14:22:00;7.60;;;3.90;;
19193;SDS011;9729;52.296;13.260;2023-05-10T14:24:26;3.97;;;3.17;;
19193;SDS011;9729;52.296;13.260;2023-05-10T14:26:53;9.60;;;4.30;;
19193;SDS011;9729;52.296;13.260;2023-05-10T14:29:19;7.67;;;3.60;;
19193;SDS011;9729;52.296;13.260;2023-05-10T14:31:47;4.93;;;3.88;;
19193;SDS011;9729;52.296;13.260;2023-05-10T14:34:13;4.15;;;3.75;;
19193;SDS011;9729;52.296;13.260;2023-05-10T14:36:39;7.72;;;3.63;;
19193;SDS011;9729;52.296;13.260;2023-05-10T14:39:06;10.47;;;3.93;;
19193;SDS011;9729;52.296;13.260;2023-05-10T14:41:32;9.17;;;3.60;;
19193;SDS011;9729;52.296;13.260;2023-05-10T14:43:59;7.83;;;3.83;;
19193;SDS011;9729;52.296;13.260;2023-05-10T14:46:26;5.73;;;3.77;;
19193;SDS011;9729;52.296;13.260;2023-05-10T14:48:54;7.13;;;4.00;;
19193;SDS011;9729;52.296;13.260;2023-05-10T14:51:20;6.47;;;3.83;;
19193;SDS011;9729;52.296;13.260;2023-05-10T14:53:47;5.27;;;3.57;;
19193;SDS011;9729;52.296;13.260;2023-05-10T14:56:13;8.43;;;3.70;;